Time;durP1;ratioP1;P1;durP2;ratioP2;P2;SDS_P1;SDS_P2;PMS_P1;PMS_P2;Temp;Humidity;BMP_temperature;BMP_pressure;BME280_temperature;BME280_humidity;BME280_pressure;Samples;Min_cycle;Max_cycle;Signal;HPM_P1;HPM_P2
2022/04/04 00:01:16;;;;;;;3.80;3.05;;;3.60;99.90;;;;;;5054599;28;20033;-80
2022/04/04 00:03:42;;;;;;;4.20;2.78;;;3.70;99.90;;;;;;5054771;28;20036;-80
2022/04/04 00:06:07;;;;;;;6.70;3.33;;;3.70;99.90;;;;;;5038277;28;20067;-80
2022/04/04 00:08:33;;;;;;;3.90;2.63;;;3.70;99.90;;;;;;5055116;28;20033;-80
2022/04/04 00:11:00;;;;;;;5.50;2.72;;;3.70;99.90;;;;;;5054375;28;20071;-80
2022/04/04 00:13:27;;;;;;;7.18;2.72;;;3.70;99.90;;;;;;5055175;28;20076;-81
2022/04/04 00:15:53;;;;;;;4.85;2.70;;;3.70;99.90;;;;;;5054911;28;20549;-80
2022/04/04 00:18:18;;;;;;;6.38;2.92;;;3.70;99.90;;;;;;5037902;28;20115;-80
2022/04/04 00:20:44;;;;;;;5.28;3.10;;;3.70;99.90;;;;;;5037865;28;20127;-80
2022/04/04 00:23:13;;;;;;;6.70;3.40;;;3.70;99.90;;;;;;5054476;28;20567;-80
2022/04/04 00:25:44;;;;;;;6.57;3.65;;;3.70;99.90;;;;;;5054361;28;20037;-81
2022/04/04 00:28:10;;;;;;;5.85;3.30;;;3.70;99.90;;;;;;5054643;28;20037;-81
2022/04/04 00:30:36;;;;;;;8.77;4.53;;;3.70;99.90;;;;;;5054249;28;20043;-80
2022/04/04 00:33:02;;;;;;;6.57;3.58;;;3.70;99.90;;;;;;5057876;28;20052;-80
2022/04/04 00:35:29;;;;;;;7.07;3.80;;;3.80;99.90;;;;;;5058310;28;20045;-80
2022/04/04 00:37:57;;;;;;;6.75;4.22;;;3.70;99.90;;;;;;5058487;28;20056;-80
2022/04/04 00:40:22;;;;;;;8.20;4.57;;;3.70;99.90;;;;;;5057502;28;20442;-80
2022/04/04 00:42:48;;;;;;;8.00;4.18;;;3.80;99.90;;;;;;5058268;28;20043;-80
2022/04/04 00:45:14;;;;;;;9.07;5.00;;;3.80;99.90;;;;;;5058394;28;20076;-81
2022/04/04 00:47:39;;;;;;;8.65;4.45;;;3.80;99.90;;;;;;5058460;28;20110;-80
2022/04/04 00:50:06;;;;;;;8.25;4.78;;;3.80;99.90;;;;;;5041421;28;20040;-80
2022/04/04 00:52:32;;;;;;;8.07;5.03;;;3.80;99.90;;;;;;5058155;28;20099;-80
2022/04/04 00:54:58;;;;;;;6.35;4.13;;;3.80;99.90;;;;;;5057921;28;20044;-80
2022/04/04 00:57:24;;;;;;;7.75;5.20;;;3.90;99.90;;;;;;5057878;28;20111;-81
2022/04/04 00:59:50;;;;;;;6.40;4.32;;;3.90;99.90;;;;;;5057769;28;20414;-80
2022/04/04 01:02:15;;;;;;;10.32;4.65;;;3.90;99.90;;;;;;5041150;28;20073;-80
2022/04/04 01:04:41;;;;;;;7.95;3.90;;;3.90;99.90;;;;;;5057666;28;20484;-80
2022/04/04 01:07:07;;;;;;;7.80;4.00;;;3.90;99.90;;;;;;5057577;28;20048;-80
2022/04/04 01:09:33;;;;;;;7.30;4.40;;;4.00;99.90;;;;;;5041177;28;20036;-80
2022/04/04 01:12:11;;;;;;;6.60;4.47;;;4.00;99.90;;;;;;5040474;28;20171;-80
2022/04/04 01:14:40;;;;;;;8.02;4.80;;;4.00;99.90;;;;;;5057474;28;20524;-80
2022/04/04 01:17:07;;;;;;;7.07;5.13;;;4.00;99.90;;;;;;5057522;28;20040;-80
2022/04/04 01:19:33;;;;;;;9.32;5.80;;;4.00;99.90;;;;;;5040888;28;20500;-81
2022/04/04 01:21:59;;;;;;;9.52;5.57;;;4.00;99.90;;;;;;5056832;28;20047;-81
2022/04/04 01:24:25;;;;;;;9.27;6.18;;;4.00;99.90;;;;;;5057342;28;20042;-80
2022/04/04 01:26:53;;;;;;;8.85;6.10;;;4.10;99.90;;;;;;5040558;28;20037;-81
2022/04/04 01:29:21;;;;;;;10.80;6.53;;;4.10;99.90;;;;;;5057487;28;20489;-80
2022/04/04 01:31:47;;;;;;;11.05;6.68;;;4.10;99.90;;;;;;5057233;28;20040;-81
2022/04/04 01:34:13;;;;;;;13.07;6.72;;;4.10;99.90;;;;;;5057301;28;20032;-80
2022/04/04 01:36:38;;;;;;;12.45;7.82;;;4.10;99.90;;;;;;5057473;28;20036;-80
2022/04/04 01:39:04;;;;;;;10.82;7.30;;;4.20;99.90;;;;;;5057242;28;20379;-80
2022/04/04 01:41:30;;;;;;;12.10;6.75;;;4.20;99.90;;;;;;5056286;28;20090;-80
2022/04/04 01:43:56;;;;;;;10.98;7.70;;;4.20;99.90;;;;;;5040064;28;20044;-81
2022/04/04 01:46:24;;;;;;;11.90;8.02;;;4.20;99.90;;;;;;5056913;28;20409;-80
2022/04/04 01:48:50;;;;;;;13.70;8.52;;;4.20;99.90;;;;;;5056695;28;20044;-80
2022/04/04 01:51:16;;;;;;;14.55;8.48;;;4.30;99.90;;;;;;5056655;28;20040;-81
2022/04/04 01:53:42;;;;;;;11.73;8.30;;;4.30;99.90;;;;;;5056988;28;20056;-80
2022/04/04 01:56:08;;;;;;;14.57;8.82;;;4.20;99.90;;;;;;5058626;28;20048;-80
2022/04/04 01:58:34;;;;;;;11.73;7.72;;;4.20;99.90;;;;;;5041998;28;20044;-81
2022/04/04 02:01:01;;;;;;;12.88;8.90;;;4.20;99.90;;;;;;5058429;28;20490;-80
2022/04/04 02:03:29;;;;;;;14.70;8.82;;;4.20;99.90;;;;;;5042024;28;20129;-80
2022/04/04 02:05:55;;;;;;;15.38;9.18;;;4.30;99.90;;;;;;5042561;28;20076;-81
2022/04/04 02:08:20;;;;;;;16.10;9.68;;;4.30;99.90;;;;;;5042223;28;20128;-80
2022/04/04 02:10:46;;;;;;;16.30;9.38;;;4.30;99.90;;;;;;5058341;28;20060;-80
2022/04/04 02:13:12;;;;;;;14.57;10.13;;;4.30;99.90;;;;;;5042611;28;20532;-81
2022/04/04 02:15:38;;;;;;;14.18;9.65;;;4.30;99.90;;;;;;5059171;28;20036;-80
2022/04/04 02:18:03;;;;;;;15.18;10.10;;;4.30;99.90;;;;;;5058561;28;20532;-81
2022/04/04 02:20:29;;;;;;;15.70;9.95;;;4.30;99.90;;;;;;5058101;28;20040;-80
2022/04/04 02:22:55;;;;;;;16.70;10.75;;;4.40;99.90;;;;;;5059069;28;20482;-80
2022/04/04 02:25:20;;;;;;;18.33;11.35;;;4.30;99.90;;;;;;5058794;28;20501;-80
2022/04/04 02:27:46;;;;;;;17.08;10.98;;;4.30;99.90;;;;;;5058911;28;20060;-81
2022/04/04 02:30:12;;;;;;;16.55;11.15;;;4.30;99.90;;;;;;5058354;28;20040;-81
2022/04/04 02:32:38;;;;;;;21.75;12.38;;;4.40;99.90;;;;;;5058550;28;20040;-81
2022/04/04 02:35:04;;;;;;;15.98;12.43;;;4.40;99.90;;;;;;5059214;28;20048;-81
2022/04/04 02:37:30;;;;;;;17.95;12.07;;;4.40;99.90;;;;;;5059483;28;20064;-80
2022/04/04 02:39:56;;;;;;;16.52;10.80;;;4.40;99.90;;;;;;5058418;28;20055;-82
2022/04/04 02:42:22;;;;;;;16.20;11.52;;;4.40;99.90;;;;;;5061431;28;20044;-80
2022/04/04 02:44:48;;;;;;;17.08;11.70;;;4.40;99.90;;;;;;5062631;28;20090;-80
2022/04/04 02:47:13;;;;;;;17.30;12.85;;;4.40;99.90;;;;;;5062801;28;20108;-80
2022/04/04 02:49:39;;;;;;;20.92;12.18;;;4.40;99.90;;;;;;5045479;28;20028;-81
2022/04/04 02:52:05;;;;;;;18.83;13.75;;;4.40;99.90;;;;;;5060411;28;20037;-80
2022/04/04 02:54:30;;;;;;;21.05;13.88;;;4.50;99.90;;;;;;5057884;28;20086;-81
2022/04/04 02:56:56;;;;;;;16.50;11.75;;;4.40;99.90;;;;;;5058412;28;20040;-81
2022/04/04 02:59:21;;;;;;;18.45;12.40;;;4.50;99.90;;;;;;5042019;28;20055;-81
2022/04/04 03:01:50;;;;;;;19.33;12.68;;;4.50;99.90;;;;;;5041507;28;20044;-81
2022/04/04 03:04:16;;;;;;;19.90;13.48;;;4.50;99.90;;;;;;5058852;28;20036;-81
2022/04/04 03:06:42;;;;;;;16.60;12.57;;;4.50;99.90;;;;;;5058187;28;20055;-81
2022/04/04 03:09:07;;;;;;;18.88;13.15;;;4.50;99.90;;;;;;5042083;28;20036;-80
2022/04/04 03:11:33;;;;;;;19.27;12.65;;;4.60;99.90;;;;;;5041431;28;20043;-80
2022/04/04 03:13:59;;;;;;;20.83;12.27;;;4.60;99.90;;;;;;5058543;28;20123;-81
2022/04/04 03:16:24;;;;;;;20.15;13.57;;;4.60;99.90;;;;;;5058568;28;20445;-81
2022/04/04 03:18:51;;;;;;;19.73;13.70;;;4.70;99.90;;;;;;5057029;28;20078;-80
2022/04/04 03:21:17;;;;;;;23.52;12.32;;;4.70;99.90;;;;;;5041614;28;20406;-82
2022/04/04 03:23:43;;;;;;;17.10;12.77;;;4.70;99.90;;;;;;5057711;28;20040;-81
2022/04/04 03:26:09;;;;;;;21.85;13.75;;;4.70;99.90;;;;;;5057553;28;20098;-81
2022/04/04 03:28:36;;;;;;;18.85;11.98;;;4.70;99.90;;;;;;5058228;28;20041;-81
2022/04/04 03:31:04;;;;;;;18.73;12.73;;;4.70;99.90;;;;;;5042923;28;20072;-80
2022/04/04 03:33:30;;;;;;;20.13;12.40;;;4.80;99.90;;;;;;5044393;28;20041;-82
2022/04/04 03:35:56;;;;;;;23.63;13.35;;;4.90;99.90;;;;;;5060659;28;20059;-81
2022/04/04 03:38:21;;;;;;;21.42;12.43;;;5.00;99.90;;;;;;5043784;28;20052;-81
2022/04/04 03:40:47;;;;;;;18.83;12.82;;;5.00;99.90;;;;;;5060151;28;20402;-81
2022/04/04 03:43:13;;;;;;;22.80;12.48;;;5.00;99.90;;;;;;5057979;28;20036;-81
2022/04/04 03:45:39;;;;;;;18.35;13.18;;;5.00;99.90;;;;;;5040249;28;20037;-81
2022/04/04 03:48:05;;;;;;;22.08;13.73;;;5.00;99.90;;;;;;5057142;28;20032;-81
2022/04/04 03:50:30;;;;;;;19.98;13.95;;;5.10;99.90;;;;;;5056900;28;20452;-81
2022/04/04 03:52:57;;;;;;;22.35;14.00;;;5.00;99.90;;;;;;5052462;28;20056;-81
2022/04/04 03:55:29;;;;;;;22.35;13.05;;;5.10;99.90;;;;;;5050954;28;20040;-81
2022/04/04 03:57:55;;;;;;;19.58;14.13;;;5.10;99.90;;;;;;5056751;28;20474;-81
2022/04/04 04:00:22;;;;;;;21.75;13.52;;;5.10;99.90;;;;;;5056841;28;20067;-80
2022/04/04 04:02:48;;;;;;;23.13;14.65;;;5.10;99.90;;;;;;5056533;28;20056;-81
2022/04/04 04:05:14;;;;;;;24.13;14.77;;;5.10;99.90;;;;;;5056252;28;20048;-81
2022/04/04 04:07:41;;;;;;;28.08;15.93;;;5.10;99.90;;;;;;5056729;28;20040;-81
2022/04/04 04:10:07;;;;;;;24.25;15.70;;;5.10;99.90;;;;;;5056589;28;20086;-81
2022/04/04 04:12:33;;;;;;;27.33;15.85;;;5.10;99.90;;;;;;5040228;28;20531;-81
2022/04/04 04:14:59;;;;;;;26.08;16.10;;;5.00;99.90;;;;;;5056901;28;20044;-81
2022/04/04 04:17:25;;;;;;;26.65;15.98;;;5.00;99.90;;;;;;5057152;28;20052;-81
2022/04/04 04:22:36;;;;;;;29.27;17.25;;;5.10;99.90;;;;;;5070590;23;20076;-72
2022/04/04 04:25:03;;;;;;;23.48;16.95;;;5.00;99.90;;;;;;5051345;28;20045;-72
2022/04/04 04:27:29;;;;;;;24.95;16.15;;;5.00;99.90;;;;;;5051137;28;20112;-72
2022/04/04 04:29:54;;;;;;;25.77;15.68;;;5.00;99.90;;;;;;5050272;28;20141;-72
2022/04/04 04:32:21;;;;;;;32.28;18.00;;;5.00;99.90;;;;;;5051419;28;20033;-72
2022/04/04 04:34:49;;;;;;;28.42;17.02;;;5.00;99.90;;;;;;5051336;28;20037;-72
2022/04/04 04:37:19;;;;;;;27.30;17.15;;;5.00;99.90;;;;;;5050041;28;20091;-72
2022/04/04 04:39:44;;;;;;;25.05;16.08;;;5.00;99.90;;;;;;5051558;28;20041;-72
2022/04/04 04:42:10;;;;;;;29.77;16.85;;;5.00;99.90;;;;;;5051043;28;20041;-71
2022/04/04 04:44:36;;;;;;;29.83;19.00;;;4.90;99.90;;;;;;5051170;28;20076;-72
2022/04/04 04:47:03;;;;;;;27.65;18.42;;;4.90;99.90;;;;;;5051255;28;20039;-72
2022/04/04 04:49:28;;;;;;;29.95;17.45;;;4.90;99.90;;;;;;5051276;28;20045;-72
2022/04/04 04:51:54;;;;;;;29.58;17.38;;;4.90;99.90;;;;;;5049555;28;20521;-72
2022/04/04 04:54:20;;;;;;;26.35;16.90;;;5.00;99.90;;;;;;5051490;28;20520;-72
2022/04/04 04:56:46;;;;;;;27.67;17.02;;;5.00;99.90;;;;;;5050141;28;20494;-72
2022/04/04 04:59:13;;;;;;;32.75;18.40;;;5.00;99.90;;;;;;5049826;28;20048;-72
2022/04/04 05:01:39;;;;;;;26.77;18.55;;;5.00;99.90;;;;;;5050849;28;20045;-72
2022/04/04 05:04:04;;;;;;;31.60;18.50;;;5.00;99.90;;;;;;5051189;28;20436;-72
2022/04/04 05:06:30;;;;;;;30.90;18.13;;;4.90;99.90;;;;;;5050936;28;20049;-72
2022/04/04 05:08:58;;;;;;;27.52;18.08;;;5.00;99.90;;;;;;5051100;28;20033;-72
2022/04/04 05:11:24;;;;;;;30.17;18.80;;;4.90;99.90;;;;;;5050867;28;20445;-72
2022/04/04 05:13:50;;;;;;;27.38;17.92;;;4.90;99.90;;;;;;5051042;28;20060;-72
2022/04/04 05:16:15;;;;;;;30.88;17.83;;;4.90;99.90;;;;;;5049967;28;20041;-72
2022/04/04 05:18:44;;;;;;;26.67;18.13;;;4.90;99.90;;;;;;5052715;28;20497;-72
2022/04/04 05:21:11;;;;;;;35.10;19.33;;;4.90;99.90;;;;;;5053963;28;20048;-72
2022/04/04 05:23:38;;;;;;;28.48;19.17;;;4.90;99.90;;;;;;5052654;28;20482;-72
2022/04/04 05:26:04;;;;;;;37.67;20.52;;;4.90;99.90;;;;;;5054124;28;20052;-72
2022/04/04 05:28:31;;;;;;;35.80;19.67;;;4.90;99.90;;;;;;5050568;28;20067;-72
2022/04/04 05:30:57;;;;;;;26.90;18.63;;;4.90;99.90;;;;;;5052471;28;20040;-72
2022/04/04 05:33:23;;;;;;;30.58;18.88;;;4.90;99.90;;;;;;5054176;28;20041;-72
2022/04/04 05:35:48;;;;;;;29.85;18.58;;;4.90;99.90;;;;;;5054190;28;20043;-72
2022/04/04 05:38:14;;;;;;;27.98;19.30;;;4.90;99.90;;;;;;5054243;28;20044;-74
2022/04/04 05:40:41;;;;;;;33.25;20.42;;;4.90;99.90;;;;;;5054036;28;20037;-73
2022/04/04 05:43:07;;;;;;;34.60;20.08;;;4.90;99.90;;;;;;5054002;28;20083;-73
2022/04/04 05:45:35;;;;;;;30.05;20.33;;;4.90;99.90;;;;;;5054177;28;20040;-73
2022/04/04 05:48:02;;;;;;;31.20;19.98;;;4.90;99.90;;;;;;5052816;28;20037;-74
2022/04/04 05:50:28;;;;;;;30.13;19.13;;;4.90;99.90;;;;;;5053765;28;20029;-73
2022/04/04 05:52:55;;;;;;;34.13;20.38;;;4.90;99.90;;;;;;5054189;28;20441;-73
2022/04/04 05:55:20;;;;;;;30.40;19.23;;;4.90;99.90;;;;;;5052736;28;20048;-73
2022/04/04 05:57:47;;;;;;;32.53;20.10;;;4.90;99.90;;;;;;5053951;28;20045;-73
2022/04/04 06:00:14;;;;;;;34.95;20.50;;;4.90;99.90;;;;;;5053667;28;20077;-73
2022/04/04 06:02:44;;;;;;;33.95;21.35;;;5.00;99.90;;;;;;5053627;28;20086;-72
2022/04/04 06:05:11;;;;;;;30.80;19.50;;;4.90;99.90;;;;;;5053891;28;20091;-73
2022/04/04 06:07:38;;;;;;;34.58;20.02;;;4.90;99.90;;;;;;5052458;28;20093;-73
2022/04/04 06:10:05;;;;;;;33.00;21.65;;;4.90;99.90;;;;;;5053512;28;20123;-73
2022/04/04 06:12:31;;;;;;;36.28;21.67;;;4.90;99.90;;;;;;5053655;28;20047;-72
2022/04/04 06:14:57;;;;;;;31.35;19.33;;;4.90;99.90;;;;;;5053589;28;20044;-73
2022/04/04 06:17:22;;;;;;;40.05;18.38;;;4.90;99.90;;;;;;5053504;28;20044;-73
2022/04/04 06:19:48;;;;;;;36.42;18.05;;;5.00;99.90;;;;;;5053588;28;20068;-73
2022/04/04 06:22:14;;;;;;;21.67;14.07;;;5.00;99.90;;;;;;5053065;28;20120;-73
2022/04/04 06:24:40;;;;;;;21.77;13.48;;;5.00;99.90;;;;;;5053397;28;20518;-73
2022/04/04 06:27:05;;;;;;;21.50;11.95;;;5.00;99.90;;;;;;5053460;28;20044;-73
2022/04/04 06:29:31;;;;;;;14.73;10.70;;;5.10;99.90;;;;;;5053196;28;20033;-72
2022/04/04 06:31:58;;;;;;;18.27;10.25;;;5.00;99.90;;;;;;5052798;28;20029;-72
2022/04/04 06:34:25;;;;;;;20.23;9.77;;;5.10;99.90;;;;;;5052277;28;20043;-73
2022/04/04 06:36:51;;;;;;;13.15;9.05;;;5.10;99.90;;;;;;5053359;28;20056;-72
2022/04/04 06:39:18;;;;;;;12.75;9.30;;;5.10;99.90;;;;;;5053298;28;20090;-72
2022/04/04 06:41:45;;;;;;;12.63;9.80;;;5.10;99.90;;;;;;5052851;28;20083;-73
2022/04/04 06:44:11;;;;;;;13.43;8.32;;;5.00;99.90;;;;;;5052927;28;20490;-73
2022/04/04 06:46:37;;;;;;;15.57;9.18;;;5.00;99.90;;;;;;5052882;28;20045;-73
2022/04/04 06:49:07;;;;;;;12.70;7.80;;;5.00;99.90;;;;;;5052939;28;20506;-73
2022/04/04 06:51:33;;;;;;;16.50;8.57;;;5.00;99.90;;;;;;5052686;28;20120;-73
2022/04/04 06:53:59;;;;;;;14.57;9.35;;;4.90;99.90;;;;;;5052933;28;20386;-73
2022/04/04 06:56:25;;;;;;;15.77;10.05;;;5.00;99.90;;;;;;5052868;28;20040;-73
2022/04/04 06:58:52;;;;;;;17.02;9.55;;;5.00;99.90;;;;;;5052656;28;20382;-73
2022/04/04 07:01:18;;;;;;;20.35;13.43;;;4.90;99.90;;;;;;5051190;28;20041;-73
2022/04/04 07:03:44;;;;;;;17.75;10.63;;;4.90;99.90;;;;;;5052501;28;20044;-72
2022/04/04 07:06:10;;;;;;;21.30;10.57;;;4.90;99.90;;;;;;5052450;28;20044;-73
2022/04/04 07:08:35;;;;;;;15.82;11.10;;;5.00;99.90;;;;;;5052641;28;20047;-73
2022/04/04 07:11:02;;;;;;;18.58;10.88;;;5.00;99.90;;;;;;5052051;28;20037;-73
2022/04/04 07:13:27;;;;;;;22.17;12.73;;;5.00;99.90;;;;;;5052429;28;20120;-73
2022/04/04 07:15:53;;;;;;;18.80;11.23;;;5.00;99.90;;;;;;5052589;28;20116;-73
2022/04/04 07:18:19;;;;;;;16.08;12.45;;;5.00;99.90;;;;;;5052422;28;20116;-72
2022/04/04 07:20:44;;;;;;;21.33;13.55;;;5.00;99.90;;;;;;5051659;28;21483;-73
2022/04/04 07:23:10;;;;;;;21.52;14.27;;;5.00;99.90;;;;;;5051954;28;20041;-73
2022/04/04 07:25:36;;;;;;;28.23;17.08;;;5.00;99.90;;;;;;5051760;28;20051;-73
2022/04/04 07:28:01;;;;;;;26.02;18.38;;;5.00;99.90;;;;;;5051766;28;20032;-73
2022/04/04 07:30:27;;;;;;;29.13;18.63;;;5.00;99.90;;;;;;5051993;28;20401;-74
2022/04/04 07:32:53;;;;;;;28.27;19.23;;;5.00;99.90;;;;;;5052086;28;20037;-73
2022/04/04 07:35:20;;;;;;;24.65;17.45;;;5.00;99.90;;;;;;5052224;28;20137;-73
2022/04/04 07:37:48;;;;;;;28.00;17.83;;;5.00;99.90;;;;;;5052142;28;20059;-73
2022/04/04 07:40:16;;;;;;;30.13;18.63;;;5.10;99.90;;;;;;5051198;28;20513;-73
2022/04/04 07:42:43;;;;;;;31.90;19.65;;;5.10;99.90;;;;;;5051850;28;20063;-73
2022/04/04 07:45:11;;;;;;;25.75;18.13;;;5.10;99.90;;;;;;5052033;28;20125;-73
2022/04/04 07:47:37;;;;;;;26.25;17.95;;;5.20;99.90;;;;;;5052023;28;20076;-72
2022/04/04 07:50:05;;;;;;;27.85;17.52;;;5.20;99.90;;;;;;5051735;28;20071;-73
2022/04/04 07:52:31;;;;;;;22.65;16.77;;;5.20;99.90;;;;;;5050675;28;20405;-73
2022/04/04 07:54:57;;;;;;;27.88;17.20;;;5.20;99.90;;;;;;5051843;28;20036;-72
2022/04/04 07:57:22;;;;;;;25.13;16.00;;;5.20;99.90;;;;;;5051690;28;20620;-73
2022/04/04 07:59:50;;;;;;;19.25;15.50;;;5.20;99.90;;;;;;5051905;28;20072;-72
2022/04/04 08:02:17;;;;;;;30.55;17.67;;;5.20;99.90;;;;;;5051353;28;20560;-72
2022/04/04 08:04:42;;;;;;;27.00;14.75;;;5.30;99.90;;;;;;5051683;28;20048;-73
2022/04/04 08:07:08;;;;;;;27.00;15.05;;;5.30;99.90;;;;;;5051697;28;20128;-73
2022/04/04 08:09:33;;;;;;;22.85;15.23;;;5.30;99.90;;;;;;5051672;28;20098;-72
2022/04/04 08:11:59;;;;;;;19.02;13.85;;;5.30;99.90;;;;;;5051134;28;20033;-73
2022/04/04 08:14:25;;;;;;;24.30;15.18;;;5.30;99.90;;;;;;5051716;28;20041;-72
2022/04/04 08:16:50;;;;;;;20.67;13.82;;;5.40;99.90;;;;;;5051092;28;20372;-72
2022/04/04 08:19:17;;;;;;;16.85;12.32;;;5.40;99.90;;;;;;5051578;28;20066;-72
2022/04/04 08:21:44;;;;;;;15.15;12.13;;;5.40;99.90;;;;;;5049700;28;20469;-72
2022/04/04 08:24:11;;;;;;;19.75;12.05;;;5.50;99.90;;;;;;5049746;28;20040;-73
2022/04/04 08:26:37;;;;;;;19.60;11.88;;;5.40;99.90;;;;;;5051313;28;20080;-72
2022/04/04 08:29:03;;;;;;;21.25;12.48;;;5.50;99.90;;;;;;5050168;28;20041;-73
2022/04/04 08:31:28;;;;;;;19.02;11.98;;;5.60;99.90;;;;;;5051062;28;20033;-73
2022/04/04 08:33:54;;;;;;;18.15;12.13;;;5.60;99.90;;;;;;5051468;28;20055;-72
2022/04/04 08:36:20;;;;;;;18.33;11.38;;;5.60;99.90;;;;;;5051514;28;20045;-72
2022/04/04 08:38:46;;;;;;;16.30;10.57;;;5.60;99.90;;;;;;5051296;28;20048;-73
2022/04/04 08:41:12;;;;;;;17.35;9.85;;;5.70;99.90;;;;;;5050887;28;20033;-72
2022/04/04 08:43:40;;;;;;;15.57;10.30;;;5.70;99.90;;;;;;5051525;28;20048;-72
2022/04/04 08:46:06;;;;;;;16.90;10.80;;;5.80;99.90;;;;;;5051373;28;20045;-73
2022/04/04 08:48:35;;;;;;;17.48;10.95;;;5.80;99.90;;;;;;5051454;28;20086;-72
2022/04/04 08:51:00;;;;;;;13.30;9.20;;;5.80;99.90;;;;;;5050902;28;20047;-73
2022/04/04 08:53:26;;;;;;;14.07;10.02;;;5.90;99.90;;;;;;5053977;28;20506;-72
2022/04/04 08:55:52;;;;;;;12.25;7.50;;;5.90;99.90;;;;;;5055202;28;20138;-73
2022/04/04 08:58:17;;;;;;;14.52;8.13;;;6.00;99.90;;;;;;5055225;28;20489;-73
2022/04/04 09:00:43;;;;;;;11.65;6.90;;;6.00;99.90;;;;;;5054660;28;20041;-72
2022/04/04 09:03:09;;;;;;;10.05;6.88;;;6.00;99.90;;;;;;5054896;28;20049;-72
2022/04/04 09:05:48;;;;;;;10.13;6.53;;;6.00;99.90;;;;;;5054837;28;20494;-73
2022/04/04 09:08:14;;;;;;;9.55;7.25;;;6.00;99.90;;;;;;5054830;28;20041;-73
2022/04/04 09:10:42;;;;;;;9.40;6.38;;;6.00;99.90;;;;;;5053717;28;20128;-73
2022/04/04 09:13:13;;;;;;;9.77;5.93;;;6.10;99.90;;;;;;5054879;28;20036;-72
2022/04/04 09:15:51;;;;;;;10.30;6.35;;;6.10;99.90;;;;;;5054747;28;20041;-73
2022/04/04 09:18:17;;;;;;;7.72;5.18;;;6.10;99.90;;;;;;5054707;28;20087;-73
2022/04/04 09:20:50;;;;;;;9.20;5.18;;;6.10;99.90;;;;;;5054059;28;20040;-73
2022/04/04 09:23:16;;;;;;;9.27;5.43;;;6.10;99.90;;;;;;5053712;28;20544;-73
2022/04/04 09:25:41;;;;;;;5.82;4.55;;;6.20;99.90;;;;;;5054618;28;20041;-72
2022/04/04 09:28:15;;;;;;;7.50;4.40;;;6.10;99.90;;;;;;5054488;28;20099;-73
2022/04/04 09:30:41;;;;;;;7.53;4.43;;;6.20;99.90;;;;;;5036254;28;20033;-72
2022/04/04 09:33:11;;;;;;;10.95;4.90;;;6.20;99.90;;;;;;5053141;28;20486;-72
2022/04/04 09:35:45;;;;;;;12.50;5.45;;;6.20;99.90;;;;;;5054558;28;20033;-73
2022/04/04 09:38:16;;;;;;;8.63;5.50;;;6.20;99.90;;;;;;5053334;28;20041;-73
2022/04/04 09:40:42;;;;;;;10.73;5.95;;;6.10;99.90;;;;;;5052655;28;20469;-73
2022/04/04 09:43:08;;;;;;;10.63;5.60;;;6.20;99.90;;;;;;5054298;28;20120;-73
2022/04/04 09:45:33;;;;;;;10.13;5.60;;;6.20;99.90;;;;;;5053998;28;20132;-73
2022/04/04 09:48:11;;;;;;;12.13;5.88;;;6.20;99.90;;;;;;5054329;28;20080;-73
2022/04/04 09:50:43;;;;;;;7.40;5.72;;;6.30;99.90;;;;;;5053953;28;20029;-73
2022/04/04 09:53:13;;;;;;;7.50;5.35;;;6.30;99.90;;;;;;5054165;28;20033;-73
2022/04/04 09:55:43;;;;;;;8.95;5.70;;;6.30;99.90;;;;;;5053760;28;20041;-72
2022/04/04 09:58:12;;;;;;;7.72;5.63;;;6.30;99.90;;;;;;5053896;28;20441;-73
2022/04/04 10:00:39;;;;;;;7.90;5.40;;;6.30;99.90;;;;;;5053680;28;20108;-73
2022/04/04 10:03:08;;;;;;;10.32;5.75;;;6.30;99.90;;;;;;5053606;28;20029;-73
2022/04/04 10:05:36;;;;;;;12.70;7.63;;;6.30;99.90;;;;;;5053880;28;20191;-73
2022/04/04 10:08:06;;;;;;;8.60;6.25;;;6.30;99.90;;;;;;5053824;28;20037;-73
2022/04/04 10:10:32;;;;;;;10.63;5.97;;;6.40;99.90;;;;;;5053306;28;20089;-73
2022/04/04 10:12:59;;;;;;;12.07;6.30;;;6.40;99.90;;;;;;5053844;28;20119;-73
2022/04/04 10:15:26;;;;;;;12.30;5.50;;;6.40;99.90;;;;;;5053785;28;20053;-73
2022/04/04 10:17:53;;;;;;;9.32;5.75;;;6.40;99.90;;;;;;5053703;28;20077;-73
2022/04/04 10:20:19;;;;;;;11.20;6.45;;;6.50;99.90;;;;;;5053290;28;20045;-73
2022/04/04 10:22:54;;;;;;;11.27;6.03;;;6.50;99.90;;;;;;5053510;28;20059;-72
2022/04/04 10:25:26;;;;;;;14.85;6.22;;;6.60;99.90;;;;;;5053289;28;20073;-72
2022/04/04 10:27:52;;;;;;;11.27;6.30;;;6.50;99.90;;;;;;5053604;28;20037;-72
2022/04/04 10:30:30;;;;;;;17.73;7.20;;;6.60;99.90;;;;;;5053132;28;20279;-72
2022/04/04 10:32:56;;;;;;;8.32;6.75;;;6.60;99.90;;;;;;5053421;28;20037;-72
2022/04/04 10:35:24;;;;;;;15.98;7.40;;;6.60;99.90;;;;;;5053306;28;20531;-72
2022/04/04 10:37:50;;;;;;;10.98;6.43;;;6.70;99.90;;;;;;5053121;28;20074;-72
2022/04/04 10:40:21;;;;;;;9.48;5.75;;;6.70;99.90;;;;;;5053092;28;20045;-73
2022/04/04 10:43:10;;;;;;;8.50;6.00;;;6.70;99.90;;;;;;5053028;28;20502;-73
2022/04/04 10:45:58;;;;;;;9.02;5.00;;;6.80;99.90;;;;;;5053059;28;20049;-73
2022/04/04 10:48:36;;;;;;;10.35;5.97;;;6.80;99.90;;;;;;5051863;28;20498;-73
2022/04/04 10:51:20;;;;;;;9.90;5.20;;;6.80;99.90;;;;;;5052784;28;20112;-73
2022/04/04 10:54:06;;;;;;;12.50;5.88;;;6.80;99.90;;;;;;5051815;28;20041;-73
2022/04/04 10:56:40;;;;;;;7.90;5.72;;;6.80;99.90;;;;;;5052957;28;20063;-72
2022/04/04 10:59:15;;;;;;;7.03;5.03;;;6.80;99.90;;;;;;5053104;28;20041;-72
2022/04/04 11:01:46;;;;;;;5.57;4.80;;;6.80;99.90;;;;;;5051645;28;20044;-73
2022/04/04 11:04:29;;;;;;;8.18;4.90;;;6.80;99.90;;;;;;5051478;28;20037;-73
2022/04/04 11:09:56;;;;;;;7.70;5.80;;;6.90;99.90;;;;;;5052341;28;20457;-73
2022/04/04 11:12:25;;;;;;;7.25;5.70;;;6.90;99.90;;;;;;5051178;28;20037;-73
2022/04/04 11:15:13;;;;;;;7.80;4.95;;;7.00;99.90;;;;;;5051718;28;20079;-73
2022/04/04 11:17:57;;;;;;;8.02;5.40;;;6.90;99.90;;;;;;5051474;28;20049;-73
2022/04/04 11:20:31;;;;;;;6.93;4.82;;;7.00;99.90;;;;;;5051132;28;20053;-73
2022/04/04 11:23:10;;;;;;;7.72;4.63;;;7.00;99.90;;;;;;5052466;28;20049;-73
2022/04/04 11:25:48;;;;;;;8.57;4.93;;;7.00;99.90;;;;;;5052231;28;20041;-73
2022/04/04 11:28:15;;;;;;;5.53;4.40;;;7.10;99.90;;;;;;5052268;28;20037;-72
2022/04/04 11:30:41;;;;;;;9.15;4.18;;;7.10;99.90;;;;;;5051646;28;20041;-72
2022/04/04 11:33:11;;;;;;;5.35;4.30;;;7.20;99.90;;;;;;5051885;28;20371;-73
2022/04/04 11:35:36;;;;;;;8.40;4.38;;;7.20;99.90;;;;;;5051600;28;20048;-73
2022/04/04 11:38:12;;;;;;;8.02;3.67;;;7.20;99.90;;;;;;5050401;28;20402;-73
2022/04/04 11:40:39;;;;;;;5.82;3.97;;;7.30;99.90;;;;;;5051848;28;20052;-72
2022/04/04 11:43:10;;;;;;;6.05;3.95;;;7.30;99.90;;;;;;5052220;28;20568;-72
2022/04/04 11:45:39;;;;;;;4.82;3.40;;;7.30;99.90;;;;;;5051872;28;20037;-73
2022/04/04 11:48:23;;;;;;;4.45;3.03;;;7.30;99.90;;;;;;5051699;28;20459;-72
2022/04/04 11:50:51;;;;;;;7.70;3.70;;;7.30;99.90;;;;;;5049851;28;20098;-73
2022/04/04 11:53:25;;;;;;;3.97;2.97;;;7.40;99.90;;;;;;5051932;28;20082;-72
2022/04/04 11:55:51;;;;;;;4.30;2.90;;;7.40;99.90;;;;;;5051906;28;20505;-73
2022/04/04 11:58:20;;;;;;;5.05;2.90;;;7.40;99.90;;;;;;5051821;28;20051;-73
2022/04/04 12:00:54;;;;;;;5.43;2.85;;;7.40;99.90;;;;;;5050171;28;20120;-73
2022/04/04 12:03:20;;;;;;;3.42;2.70;;;7.40;99.90;;;;;;5050560;28;20095;-73
2022/04/04 12:05:50;;;;;;;3.97;2.85;;;7.50;99.90;;;;;;5051800;28;20036;-72
2022/04/04 12:08:18;;;;;;;4.97;2.88;;;7.50;99.90;;;;;;5049700;28;20037;-73
2022/04/04 12:10:49;;;;;;;5.03;2.40;;;7.40;99.90;;;;;;5049284;28;20495;-72
2022/04/04 12:13:21;;;;;;;2.72;2.42;;;7.50;99.90;;;;;;5051580;28;20102;-73
2022/04/04 12:15:49;;;;;;;6.82;3.22;;;7.50;99.90;;;;;;5051593;28;20609;-73
2022/04/04 12:18:23;;;;;;;3.97;2.38;;;7.50;99.90;;;;;;5051858;28;20068;-73
2022/04/04 12:20:51;;;;;;;3.85;2.28;;;7.50;99.90;;;;;;5051257;28;20080;-73
2022/04/04 12:26:11;;;;;;;4.40;2.45;;;7.60;99.90;;;;;;5050949;28;20147;-72
2022/04/04 12:28:49;;;;;;;2.42;1.90;;;7.60;99.90;;;;;;5054770;28;20497;-72
2022/04/04 12:31:19;;;;;;;4.55;2.03;;;7.60;99.90;;;;;;5053327;28;20029;-72
2022/04/04 12:33:45;;;;;;;3.63;2.38;;;7.60;99.90;;;;;;5054128;28;20086;-73
2022/04/04 12:36:12;;;;;;;2.53;2.15;;;7.70;99.90;;;;;;5055475;28;20408;-74
2022/04/04 12:38:39;;;;;;;5.32;2.40;;;7.80;99.90;;;;;;5054207;28;20120;-74
2022/04/04 12:41:15;;;;;;;1.60;1.50;;;7.80;99.90;;;;;;5055075;28;20049;-74
2022/04/04 12:43:43;;;;;;;2.10;1.80;;;7.80;99.90;;;;;;5054161;28;20041;-74
2022/04/04 12:46:27;;;;;;;3.45;2.17;;;7.80;99.90;;;;;;5055193;28;20045;-73
2022/04/04 12:48:54;;;;;;;3.42;2.15;;;7.90;99.90;;;;;;5055202;28;20071;-74
2022/04/04 12:51:31;;;;;;;3.45;1.90;;;7.90;99.90;;;;;;5054737;28;20033;-73
2022/04/04 12:54:00;;;;;;;2.58;1.45;;;7.90;99.90;;;;;;5055372;28;20045;-73
2022/04/04 12:56:27;;;;;;;2.25;2.03;;;7.90;99.90;;;;;;5055165;28;20117;-73